createdAt,value
2022-08-07T00:03:14.554Z,13.46
2022-08-07T00:13:25.646Z,13.37
2022-08-07T00:23:35.914Z,13.50
2022-08-07T00:33:47.963Z,13.51
2022-08-07T00:44:00.627Z,13.25
2022-08-07T00:54:10.504Z,13.00
2022-08-07T01:04:43.438Z,12.76
2022-08-07T01:14:51.219Z,12.72
2022-08-07T01:25:54.184Z,12.48
2022-08-07T01:35:53.686Z,12.47
2022-08-07T01:46:03.075Z,12.40
2022-08-07T01:56:07.749Z,12.34
2022-08-07T02:06:30.931Z,12.34
2022-08-07T02:16:43.851Z,12.47
2022-08-07T02:26:52.447Z,12.34
2022-08-07T02:37:02.326Z,12.03
2022-08-07T02:47:19.874Z,11.98
2022-08-07T02:57:34.207Z,12.07
2022-08-07T03:08:07.341Z,12.12
2022-08-07T03:18:11.691Z,11.98
2022-08-07T03:28:37.980Z,11.97
2022-08-07T03:38:47.029Z,11.99
2022-08-07T03:49:02.584Z,11.87
2022-08-07T03:59:13.724Z,11.99
2022-08-07T04:09:23.472Z,12.15
2022-08-07T04:19:51.253Z,12.87
2022-08-07T04:30:02.634Z,14.27
2022-08-07T04:40:13.704Z,13.93
2022-08-07T04:50:19.551Z,14.34
2022-08-07T05:00:38.075Z,16.25
2022-08-07T05:10:50.576Z,17.99
2022-08-07T05:21:05.949Z,18.85
2022-08-07T05:31:16.662Z,19.20
2022-08-07T05:41:24.541Z,18.54
2022-08-07T05:51:50.712Z,19.21
2022-08-07T06:02:00.368Z,19.08
2022-08-07T06:12:09.248Z,19.18
2022-08-07T06:22:23.551Z,19.38
2022-08-07T06:32:34.989Z,20.01
2022-08-07T06:42:43.526Z,20.39
2022-08-07T06:52:56.661Z,20.19
2022-08-07T07:03:08.659Z,20.35
2022-08-07T07:13:43.591Z,20.96
2022-08-07T07:24:08.377Z,20.47
2022-08-07T07:34:18.179Z,20.54
2022-08-07T07:44:29.323Z,20.22
2022-08-07T07:54:37.732Z,19.84
2022-08-07T08:04:50.599Z,20.71
2022-08-07T08:14:58.217Z,20.52
2022-08-07T08:25:26.918Z,20.60
2022-08-07T08:35:50.632Z,21.15
2022-08-07T08:46:10.576Z,21.19
2022-08-07T08:56:17.358Z,21.65
2022-08-07T09:06:30.924Z,21.52
2022-08-07T09:16:37.987Z,22.20
2022-08-07T09:26:47.718Z,22.21
2022-08-07T09:36:57.425Z,22.86
2022-08-07T09:47:42.628Z,22.09
2022-08-07T09:58:04.712Z,21.51
2022-08-07T10:08:14.145Z,21.36
2022-08-07T10:28:52.671Z,21.91
2022-08-07T10:38:58.442Z,22.08
2022-08-07T10:49:03.814Z,22.28
2022-08-07T10:59:22.112Z,22.10
2022-08-07T11:10:09.318Z,22.06
2022-08-07T11:20:03.561Z,22.52
2022-08-07T11:30:18.346Z,22.72
2022-08-07T11:40:27.602Z,21.89
2022-08-07T11:50:36.860Z,21.53
2022-08-07T12:01:04.329Z,21.31
2022-08-07T12:11:21.942Z,21.32
2022-08-07T12:22:36.392Z,21.40
2022-08-07T12:32:05.806Z,21.76
2022-08-07T12:42:18.350Z,22.34
2022-08-07T12:52:46.236Z,22.19
2022-08-07T13:02:58.100Z,21.84
2022-08-07T13:13:06.736Z,21.84
2022-08-07T13:24:01.217Z,21.93
2022-08-07T13:34:30.882Z,22.04
2022-08-07T13:44:13.051Z,22.39
2022-08-07T13:54:33.549Z,22.56
2022-08-07T14:04:47.455Z,22.54
2022-08-07T14:15:01.464Z,21.93
2022-08-07T14:25:13.072Z,22.05
2022-08-07T14:35:45.760Z,22.12
2022-08-07T14:56:16.202Z,22.14
2022-08-07T15:06:37.421Z,21.85
2022-08-07T15:38:17.235Z,22.25
2022-08-07T15:48:01.906Z,21.93
2022-08-07T15:58:20.745Z,21.70
2022-08-07T16:08:38.588Z,21.25
2022-08-07T16:19:04.897Z,20.85
2022-08-07T16:30:09.968Z,21.04
2022-08-07T16:39:56.060Z,21.24
2022-08-07T17:00:29.541Z,21.05
2022-08-07T17:10:54.771Z,20.82
2022-08-07T17:21:19.082Z,20.62
2022-08-07T17:31:44.332Z,20.39
2022-08-07T17:42:16.477Z,20.02
2022-08-07T17:52:30.988Z,19.69
2022-08-07T18:02:56.837Z,19.35
2022-08-07T18:13:15.521Z,18.99
2022-08-07T18:23:43.207Z,18.68
2022-08-07T18:34:37.004Z,18.40
2022-08-07T18:45:09.200Z,18.18
2022-08-07T18:55:08.399Z,18.00
2022-08-07T19:06:02.771Z,17.85
2022-08-07T19:17:00.561Z,17.62
2022-08-07T19:26:36.217Z,17.33
2022-08-07T19:37:09.573Z,17.05
2022-08-07T19:47:30.966Z,16.70
2022-08-07T19:58:00.064Z,16.47
2022-08-07T20:08:23.002Z,16.23
2022-08-07T20:18:32.189Z,15.95
2022-08-07T20:28:43.857Z,15.56
2022-08-07T20:39:00.891Z,15.20
2022-08-07T20:49:58.048Z,15.07
2022-08-07T21:00:08.382Z,14.98
2022-08-07T21:10:14.983Z,14.56
2022-08-07T21:20:33.517Z,14.09
2022-08-07T21:30:44.552Z,13.98
2022-08-07T21:40:58.959Z,13.85
2022-08-07T21:51:20.394Z,13.63
2022-08-07T22:02:07.187Z,13.51
2022-08-07T22:12:06.958Z,13.19
2022-08-07T22:22:28.795Z,13.00
2022-08-07T22:32:42.266Z,12.93
2022-08-07T22:42:51.716Z,12.90
2022-08-07T22:54:08.789Z,12.87
2022-08-07T23:04:00.558Z,12.68
2022-08-07T23:14:16.255Z,12.53
2022-08-07T23:24:45.357Z,12.56
2022-08-07T23:35:06.229Z,12.66
2022-08-07T23:45:33.421Z,12.48
2022-08-07T23:55:52.414Z,12.39
